sensor_id;sensor_type;location;lat;lon;timestamp;P1;durP1;ratioP1;P2;durP2;ratioP2
3769;SDS011;1900;48.890;9.190;2022-08-21T00:00:47;5.90;;;2.80;;
3769;SDS011;1900;48.890;9.190;2022-08-21T00:03:13;3.57;;;2.80;;
3769;SDS011;1900;48.890;9.190;2022-08-21T00:05:42;6.50;;;2.70;;
3769;SDS011;1900;48.890;9.190;2022-08-21T00:08:10;3.70;;;2.90;;
3769;SDS011;1900;48.890;9.190;2022-08-21T00:10:36;8.60;;;3.10;;
3769;SDS011;1900;48.890;9.190;2022-08-21T00:13:03;9.73;;;3.10;;
3769;SDS011;1900;48.890;9.190;2022-08-21T00:15:30;6.20;;;2.70;;
3769;SDS011;1900;48.890;9.190;2022-08-21T00:17:57;4.90;;;2.93;;
3769;SDS011;1900;48.890;9.190;2022-08-21T00:20:24;5.57;;;2.93;;
3769;SDS011;1900;48.890;9.190;2022-08-21T00:22:51;10.13;;;2.97;;
3769;SDS011;1900;48.890;9.190;2022-08-21T00:25:17;5.70;;;2.93;;
3769;SDS011;1900;48.890;9.190;2022-08-21T00:27:44;4.40;;;3.13;;
3769;SDS011;1900;48.890;9.190;2022-08-21T00:30:12;6.40;;;2.90;;
3769;SDS011;1900;48.890;9.190;2022-08-21T00:32:39;4.07;;;2.80;;
3769;SDS011;1900;48.890;9.190;2022-08-21T00:35:08;4.67;;;2.67;;
3769;SDS011;1900;48.890;9.190;2022-08-21T00:37:37;4.90;;;2.53;;
3769;SDS011;1900;48.890;9.190;2022-08-21T00:40:05;4.70;;;2.77;;
3769;SDS011;1900;48.890;9.190;2022-08-21T00:42:32;3.33;;;2.90;;
3769;SDS011;1900;48.890;9.190;2022-08-21T00:44:58;4.13;;;2.60;;
3769;SDS011;1900;48.890;9.190;2022-08-21T00:47:24;7.13;;;3.30;;
3769;SDS011;1900;48.890;9.190;2022-08-21T00:49:50;7.60;;;3.10;;
3769;SDS011;1900;48.890;9.190;2022-08-21T00:52:17;5.83;;;2.73;;
3769;SDS011;1900;48.890;9.190;2022-08-21T00:54:47;4.10;;;2.80;;
3769;SDS011;1900;48.890;9.190;2022-08-21T00:57:16;5.57;;;2.93;;
3769;SDS011;1900;48.890;9.190;2022-08-21T00:59:45;10.00;;;3.20;;
3769;SDS011;1900;48.890;9.190;2022-08-21T01:02:15;5.23;;;3.33;;
3769;SDS011;1900;48.890;9.190;2022-08-21T01:04:42;4.53;;;2.63;;
3769;SDS011;1900;48.890;9.190;2022-08-21T01:07:08;4.93;;;3.07;;
3769;SDS011;1900;48.890;9.190;2022-08-21T01:09:34;4.33;;;2.97;;
3769;SDS011;1900;48.890;9.190;2022-08-21T01:12:00;7.63;;;3.70;;
3769;SDS011;1900;48.890;9.190;2022-08-21T01:14:26;4.87;;;2.50;;
3769;SDS011;1900;48.890;9.190;2022-08-21T01:16:53;5.97;;;2.80;;
3769;SDS011;1900;48.890;9.190;2022-08-21T01:19:20;6.67;;;3.20;;
3769;SDS011;1900;48.890;9.190;2022-08-21T01:21:47;6.40;;;2.40;;
3769;SDS011;1900;48.890;9.190;2022-08-21T01:24:13;4.93;;;2.80;;
3769;SDS011;1900;48.890;9.190;2022-08-21T01:26:39;4.23;;;2.30;;
3769;SDS011;1900;48.890;9.190;2022-08-21T01:29:07;6.40;;;3.50;;
3769;SDS011;1900;48.890;9.190;2022-08-21T01:31:37;6.13;;;3.00;;
3769;SDS011;1900;48.890;9.190;2022-08-21T01:34:03;5.03;;;3.00;;
3769;SDS011;1900;48.890;9.190;2022-08-21T01:36:29;4.60;;;2.83;;
3769;SDS011;1900;48.890;9.190;2022-08-21T01:38:56;3.63;;;2.63;;
3769;SDS011;1900;48.890;9.190;2022-08-21T01:41:21;7.20;;;3.43;;
3769;SDS011;1900;48.890;9.190;2022-08-21T01:43:47;6.63;;;3.10;;
3769;SDS011;1900;48.890;9.190;2022-08-21T01:46:14;7.33;;;2.80;;
3769;SDS011;1900;48.890;9.190;2022-08-21T01:48:40;4.53;;;2.80;;
3769;SDS011;1900;48.890;9.190;2022-08-21T01:51:07;9.70;;;3.47;;
3769;SDS011;1900;48.890;9.190;2022-08-21T01:53:33;6.33;;;3.23;;
3769;SDS011;1900;48.890;9.190;2022-08-21T01:56:02;5.87;;;3.20;;
3769;SDS011;1900;48.890;9.190;2022-08-21T01:58:29;4.50;;;2.50;;
3769;SDS011;1900;48.890;9.190;2022-08-21T02:00:55;4.10;;;2.90;;
3769;SDS011;1900;48.890;9.190;2022-08-21T02:03:21;8.90;;;3.20;;
3769;SDS011;1900;48.890;9.190;2022-08-21T02:05:47;6.50;;;2.87;;
3769;SDS011;1900;48.890;9.190;2022-08-21T02:08:12;3.90;;;2.93;;
3769;SDS011;1900;48.890;9.190;2022-08-21T02:10:38;5.80;;;2.73;;
3769;SDS011;1900;48.890;9.190;2022-08-21T02:13:06;5.57;;;2.80;;
3769;SDS011;1900;48.890;9.190;2022-08-21T02:15:32;4.60;;;3.20;;
3769;SDS011;1900;48.890;9.190;2022-08-21T02:17:59;9.93;;;3.43;;
3769;SDS011;1900;48.890;9.190;2022-08-21T02:22:56;4.87;;;2.83;;
3769;SDS011;1900;48.890;9.190;2022-08-21T02:25:23;7.43;;;3.90;;
3769;SDS011;1900;48.890;9.190;2022-08-21T02:27:50;4.23;;;2.70;;
3769;SDS011;1900;48.890;9.190;2022-08-21T02:30:18;6.93;;;3.40;;
3769;SDS011;1900;48.890;9.190;2022-08-21T02:32:47;4.50;;;3.23;;
3769;SDS011;1900;48.890;9.190;2022-08-21T02:35:13;5.10;;;3.53;;
3769;SDS011;1900;48.890;9.190;2022-08-21T02:37:43;9.10;;;3.30;;
3769;SDS011;1900;48.890;9.190;2022-08-21T02:40:11;5.50;;;3.47;;
3769;SDS011;1900;48.890;9.190;2022-08-21T02:42:37;5.90;;;3.60;;
3769;SDS011;1900;48.890;9.190;2022-08-21T02:45:05;6.50;;;3.83;;
3769;SDS011;1900;48.890;9.190;2022-08-21T02:47:31;7.53;;;3.60;;
3769;SDS011;1900;48.890;9.190;2022-08-21T02:49:57;5.57;;;2.80;;
3769;SDS011;1900;48.890;9.190;2022-08-21T02:52:23;5.60;;;3.47;;
3769;SDS011;1900;48.890;9.190;2022-08-21T02:54:49;4.70;;;2.83;;
3769;SDS011;1900;48.890;9.190;2022-08-21T02:57:15;4.83;;;3.00;;
3769;SDS011;1900;48.890;9.190;2022-08-21T02:59:42;6.97;;;4.00;;
3769;SDS011;1900;48.890;9.190;2022-08-21T03:02:08;5.73;;;3.70;;
3769;SDS011;1900;48.890;9.190;2022-08-21T03:04:33;4.97;;;3.43;;
3769;SDS011;1900;48.890;9.190;2022-08-21T03:06:59;9.23;;;4.17;;
3769;SDS011;1900;48.890;9.190;2022-08-21T03:09:25;3.80;;;3.00;;
3769;SDS011;1900;48.890;9.190;2022-08-21T03:11:51;4.70;;;3.10;;
3769;SDS011;1900;48.890;9.190;2022-08-21T03:14:17;3.47;;;3.17;;
3769;SDS011;1900;48.890;9.190;2022-08-21T03:16:43;6.17;;;3.60;;
3769;SDS011;1900;48.890;9.190;2022-08-21T03:19:09;11.13;;;3.73;;
3769;SDS011;1900;48.890;9.190;2022-08-21T03:21:35;5.47;;;3.50;;
3769;SDS011;1900;48.890;9.190;2022-08-21T03:24:01;3.93;;;3.43;;
3769;SDS011;1900;48.890;9.190;2022-08-21T03:26:26;7.00;;;4.03;;
3769;SDS011;1900;48.890;9.190;2022-08-21T03:28:53;5.43;;;3.57;;
3769;SDS011;1900;48.890;9.190;2022-08-21T03:31:19;6.93;;;3.87;;
3769;SDS011;1900;48.890;9.190;2022-08-21T03:33:46;5.93;;;3.53;;
3769;SDS011;1900;48.890;9.190;2022-08-21T03:36:12;4.90;;;3.03;;
3769;SDS011;1900;48.890;9.190;2022-08-21T03:38:38;8.57;;;3.90;;
3769;SDS011;1900;48.890;9.190;2022-08-21T03:41:04;7.50;;;3.63;;
3769;SDS011;1900;48.890;9.190;2022-08-21T03:43:31;5.20;;;3.80;;
3769;SDS011;1900;48.890;9.190;2022-08-21T03:45:57;4.50;;;3.67;;
3769;SDS011;1900;48.890;9.190;2022-08-21T03:48:25;8.50;;;4.10;;
3769;SDS011;1900;48.890;9.190;2022-08-21T03:50:51;6.23;;;3.50;;
3769;SDS011;1900;48.890;9.190;2022-08-21T03:53:17;4.77;;;3.20;;
3769;SDS011;1900;48.890;9.190;2022-08-21T03:55:47;6.30;;;3.90;;
3769;SDS011;1900;48.890;9.190;2022-08-21T03:58:16;4.17;;;3.63;;
3769;SDS011;1900;48.890;9.190;2022-08-21T04:00:47;4.00;;;3.27;;
3769;SDS011;1900;48.890;9.190;2022-08-21T04:03:16;7.20;;;4.10;;
3769;SDS011;1900;48.890;9.190;2022-08-21T04:05:42;4.00;;;3.50;;
3769;SDS011;1900;48.890;9.190;2022-08-21T04:08:10;4.90;;;3.43;;
3769;SDS011;1900;48.890;9.190;2022-08-21T04:10:37;4.83;;;3.80;;
3769;SDS011;1900;48.890;9.190;2022-08-21T04:13:05;4.27;;;3.60;;
3769;SDS011;1900;48.890;9.190;2022-08-21T04:15:32;6.40;;;3.90;;
3769;SDS011;1900;48.890;9.190;2022-08-21T04:17:58;4.90;;;3.60;;
3769;SDS011;1900;48.890;9.190;2022-08-21T04:20:24;6.77;;;4.07;;
3769;SDS011;1900;48.890;9.190;2022-08-21T04:22:50;8.40;;;3.73;;
3769;SDS011;1900;48.890;9.190;2022-08-21T04:25:17;7.20;;;3.83;;
3769;SDS011;1900;48.890;9.190;2022-08-21T04:27:44;7.27;;;3.93;;
3769;SDS011;1900;48.890;9.190;2022-08-21T04:30:11;4.63;;;3.70;;
3769;SDS011;1900;48.890;9.190;2022-08-21T04:32:38;5.23;;;3.77;;
3769;SDS011;1900;48.890;9.190;2022-08-21T04:35:07;4.20;;;3.63;;
3769;SDS011;1900;48.890;9.190;2022-08-21T04:37:34;6.03;;;3.37;;
3769;SDS011;1900;48.890;9.190;2022-08-21T04:40:02;12.70;;;4.27;;
3769;SDS011;1900;48.890;9.190;2022-08-21T04:42:29;3.50;;;3.20;;
3769;SDS011;1900;48.890;9.190;2022-08-21T04:44:55;5.37;;;3.47;;
3769;SDS011;1900;48.890;9.190;2022-08-21T04:47:21;4.40;;;3.70;;
3769;SDS011;1900;48.890;9.190;2022-08-21T04:49:48;6.40;;;4.50;;
3769;SDS011;1900;48.890;9.190;2022-08-21T04:52:15;6.07;;;3.83;;
3769;SDS011;1900;48.890;9.190;2022-08-21T04:54:45;3.77;;;3.10;;
3769;SDS011;1900;48.890;9.190;2022-08-21T04:57:13;5.17;;;3.90;;
3769;SDS011;1900;48.890;9.190;2022-08-21T04:59:47;4.30;;;3.90;;
3769;SDS011;1900;48.890;9.190;2022-08-21T05:02:15;5.00;;;4.10;;
3769;SDS011;1900;48.890;9.190;2022-08-21T05:04:43;4.73;;;3.30;;
3769;SDS011;1900;48.890;9.190;2022-08-21T05:07:14;4.10;;;3.13;;
3769;SDS011;1900;48.890;9.190;2022-08-21T05:09:44;11.40;;;4.57;;
3769;SDS011;1900;48.890;9.190;2022-08-21T05:12:10;5.73;;;3.63;;
3769;SDS011;1900;48.890;9.190;2022-08-21T05:14:36;6.30;;;3.63;;
3769;SDS011;1900;48.890;9.190;2022-08-21T05:17:02;9.70;;;4.77;;
3769;SDS011;1900;48.890;9.190;2022-08-21T05:19:27;5.03;;;4.10;;
3769;SDS011;1900;48.890;9.190;2022-08-21T05:21:53;4.50;;;3.43;;
3769;SDS011;1900;48.890;9.190;2022-08-21T05:24:20;4.00;;;3.60;;
3769;SDS011;1900;48.890;9.190;2022-08-21T05:26:45;7.53;;;3.60;;
3769;SDS011;1900;48.890;9.190;2022-08-21T05:29:12;4.00;;;3.57;;
3769;SDS011;1900;48.890;9.190;2022-08-21T05:31:39;9.00;;;3.93;;
3769;SDS011;1900;48.890;9.190;2022-08-21T05:34:05;6.90;;;3.50;;
3769;SDS011;1900;48.890;9.190;2022-08-21T05:36:30;5.90;;;4.20;;
3769;SDS011;1900;48.890;9.190;2022-08-21T05:38:56;5.90;;;4.30;;
3769;SDS011;1900;48.890;9.190;2022-08-21T05:41:22;7.60;;;4.17;;
3769;SDS011;1900;48.890;9.190;2022-08-21T05:43:48;8.53;;;3.67;;
3769;SDS011;1900;48.890;9.190;2022-08-21T05:46:13;5.20;;;3.20;;
3769;SDS011;1900;48.890;9.190;2022-08-21T05:48:39;6.47;;;4.00;;
3769;SDS011;1900;48.890;9.190;2022-08-21T05:51:06;5.47;;;3.60;;
3769;SDS011;1900;48.890;9.190;2022-08-21T05:53:33;6.50;;;3.80;;
3769;SDS011;1900;48.890;9.190;2022-08-21T05:55:59;6.10;;;4.20;;
3769;SDS011;1900;48.890;9.190;2022-08-21T05:58:25;12.20;;;3.53;;
3769;SDS011;1900;48.890;9.190;2022-08-21T06:00:50;5.07;;;3.83;;
3769;SDS011;1900;48.890;9.190;2022-08-21T06:03:18;5.20;;;3.80;;
3769;SDS011;1900;48.890;9.190;2022-08-21T06:05:46;5.97;;;4.57;;
3769;SDS011;1900;48.890;9.190;2022-08-21T06:08:12;6.73;;;3.80;;
3769;SDS011;1900;48.890;9.190;2022-08-21T06:10:42;6.17;;;3.80;;
3769;SDS011;1900;48.890;9.190;2022-08-21T06:13:08;6.10;;;3.90;;
3769;SDS011;1900;48.890;9.190;2022-08-21T06:15:34;5.73;;;3.60;;
3769;SDS011;1900;48.890;9.190;2022-08-21T06:18:00;6.60;;;4.17;;
3769;SDS011;1900;48.890;9.190;2022-08-21T06:20:26;6.17;;;4.23;;
3769;SDS011;1900;48.890;9.190;2022-08-21T06:22:52;10.23;;;3.67;;
3769;SDS011;1900;48.890;9.190;2022-08-21T06:25:17;8.70;;;4.90;;
3769;SDS011;1900;48.890;9.190;2022-08-21T06:27:44;7.90;;;4.30;;
3769;SDS011;1900;48.890;9.190;2022-08-21T06:30:10;8.83;;;4.30;;
3769;SDS011;1900;48.890;9.190;2022-08-21T06:32:36;9.03;;;4.23;;
3769;SDS011;1900;48.890;9.190;2022-08-21T06:35:03;6.73;;;4.07;;
3769;SDS011;1900;48.890;9.190;2022-08-21T06:37:29;4.60;;;4.00;;
3769;SDS011;1900;48.890;9.190;2022-08-21T06:39:55;9.07;;;3.80;;
3769;SDS011;1900;48.890;9.190;2022-08-21T06:42:21;8.10;;;3.80;;
3769;SDS011;1900;48.890;9.190;2022-08-21T06:44:46;6.50;;;3.70;;
3769;SDS011;1900;48.890;9.190;2022-08-21T06:47:12;7.67;;;4.77;;
3769;SDS011;1900;48.890;9.190;2022-08-21T06:49:39;5.13;;;3.83;;
3769;SDS011;1900;48.890;9.190;2022-08-21T06:52:08;5.07;;;3.67;;
3769;SDS011;1900;48.890;9.190;2022-08-21T06:54:35;5.00;;;4.00;;
3769;SDS011;1900;48.890;9.190;2022-08-21T06:57:01;6.77;;;4.33;;
3769;SDS011;1900;48.890;9.190;2022-08-21T06:59:27;7.80;;;5.73;;
3769;SDS011;1900;48.890;9.190;2022-08-21T07:01:52;7.57;;;5.10;;
3769;SDS011;1900;48.890;9.190;2022-08-21T07:04:18;4.53;;;3.53;;
3769;SDS011;1900;48.890;9.190;2022-08-21T07:06:44;6.50;;;3.33;;
3769;SDS011;1900;48.890;9.190;2022-08-21T07:09:10;6.70;;;3.70;;
3769;SDS011;1900;48.890;9.190;2022-08-21T07:11:36;6.40;;;3.70;;
3769;SDS011;1900;48.890;9.190;2022-08-21T07:14:03;6.10;;;3.70;;
3769;SDS011;1900;48.890;9.190;2022-08-21T07:16:29;7.60;;;3.80;;
3769;SDS011;1900;48.890;9.190;2022-08-21T07:18:55;8.43;;;3.97;;
3769;SDS011;1900;48.890;9.190;2022-08-21T07:21:21;6.47;;;3.73;;
3769;SDS011;1900;48.890;9.190;2022-08-21T07:23:48;5.20;;;3.50;;
3769;SDS011;1900;48.890;9.190;2022-08-21T07:26:17;5.93;;;3.17;;
3769;SDS011;1900;48.890;9.190;2022-08-21T07:28:46;6.83;;;3.73;;
3769;SDS011;1900;48.890;9.190;2022-08-21T07:31:13;8.00;;;4.30;;
3769;SDS011;1900;48.890;9.190;2022-08-21T07:33:41;6.90;;;4.00;;
3769;SDS011;1900;48.890;9.190;2022-08-21T07:36:07;10.00;;;4.00;;
3769;SDS011;1900;48.890;9.190;2022-08-21T07:38:33;16.90;;;3.93;;
3769;SDS011;1900;48.890;9.190;2022-08-21T07:41:00;6.20;;;3.87;;
3769;SDS011;1900;48.890;9.190;2022-08-21T07:43:28;9.10;;;3.70;;
3769;SDS011;1900;48.890;9.190;2022-08-21T07:45:54;4.43;;;3.37;;
3769;SDS011;1900;48.890;9.190;2022-08-21T07:48:20;7.67;;;4.10;;
3769;SDS011;1900;48.890;9.190;2022-08-21T07:50:47;7.10;;;4.53;;
3769;SDS011;1900;48.890;9.190;2022-08-21T07:53:13;8.50;;;3.93;;
3769;SDS011;1900;48.890;9.190;2022-08-21T07:55:40;9.00;;;4.23;;
3769;SDS011;1900;48.890;9.190;2022-08-21T07:58:05;5.70;;;3.60;;
3769;SDS011;1900;48.890;9.190;2022-08-21T08:00:31;10.43;;;4.97;;
3769;SDS011;1900;48.890;9.190;2022-08-21T08:02:58;10.23;;;4.20;;
3769;SDS011;1900;48.890;9.190;2022-08-21T08:05:25;10.33;;;5.10;;
3769;SDS011;1900;48.890;9.190;2022-08-21T08:07:53;5.93;;;4.47;;
3769;SDS011;1900;48.890;9.190;2022-08-21T08:10:20;6.27;;;3.47;;
3769;SDS011;1900;48.890;9.190;2022-08-21T08:12:46;9.17;;;4.40;;
3769;SDS011;1900;48.890;9.190;2022-08-21T08:15:15;11.20;;;4.90;;
3769;SDS011;1900;48.890;9.190;2022-08-21T08:17:42;7.17;;;3.90;;
3769;SDS011;1900;48.890;9.190;2022-08-21T08:20:09;7.53;;;4.23;;
3769;SDS011;1900;48.890;9.190;2022-08-21T08:22:37;6.33;;;4.30;;
3769;SDS011;1900;48.890;9.190;2022-08-21T08:25:04;6.20;;;3.53;;
3769;SDS011;1900;48.890;9.190;2022-08-21T08:27:31;7.43;;;4.60;;
3769;SDS011;1900;48.890;9.190;2022-08-21T08:29:57;12.30;;;4.47;;
3769;SDS011;1900;48.890;9.190;2022-08-21T08:32:23;11.20;;;4.63;;
3769;SDS011;1900;48.890;9.190;2022-08-21T08:34:49;6.97;;;4.90;;
3769;SDS011;1900;48.890;9.190;2022-08-21T08:37:16;5.60;;;3.90;;
3769;SDS011;1900;48.890;9.190;2022-08-21T08:39:44;5.20;;;3.47;;
3769;SDS011;1900;48.890;9.190;2022-08-21T08:42:26;4.23;;;3.83;;
3769;SDS011;1900;48.890;9.190;2022-08-21T08:44:58;10.50;;;4.17;;
3769;SDS011;1900;48.890;9.190;2022-08-21T08:47:35;4.00;;;3.40;;
3769;SDS011;1900;48.890;9.190;2022-08-21T08:52:48;5.57;;;3.97;;
3769;SDS011;1900;48.890;9.190;2022-08-21T08:55:44;6.90;;;4.13;;
3769;SDS011;1900;48.890;9.190;2022-08-21T08:58:16;7.07;;;4.03;;
3769;SDS011;1900;48.890;9.190;2022-08-21T09:00:49;7.47;;;3.80;;
3769;SDS011;1900;48.890;9.190;2022-08-21T09:03:16;7.63;;;4.30;;
3769;SDS011;1900;48.890;9.190;2022-08-21T09:05:46;5.63;;;4.20;;
3769;SDS011;1900;48.890;9.190;2022-08-21T09:08:28;6.00;;;3.57;;
3769;SDS011;1900;48.890;9.190;2022-08-21T09:11:07;12.27;;;4.90;;
3769;SDS011;1900;48.890;9.190;2022-08-21T09:13:50;6.50;;;3.90;;
3769;SDS011;1900;48.890;9.190;2022-08-21T09:16:49;6.47;;;3.93;;
3769;SDS011;1900;48.890;9.190;2022-08-21T09:25:20;10.70;;;4.20;;
3769;SDS011;1900;48.890;9.190;2022-08-21T09:27:47;5.63;;;3.23;;
3769;SDS011;1900;48.890;9.190;2022-08-21T09:30:13;6.00;;;4.00;;
3769;SDS011;1900;48.890;9.190;2022-08-21T09:32:40;5.73;;;3.60;;
3769;SDS011;1900;48.890;9.190;2022-08-21T09:37:46;9.73;;;4.07;;
3769;SDS011;1900;48.890;9.190;2022-08-21T09:42:56;6.77;;;3.83;;
3769;SDS011;1900;48.890;9.190;2022-08-21T09:45:24;6.73;;;4.00;;
3769;SDS011;1900;48.890;9.190;2022-08-21T09:47:50;8.63;;;3.57;;
3769;SDS011;1900;48.890;9.190;2022-08-21T09:50:17;8.07;;;3.73;;
3769;SDS011;1900;48.890;9.190;2022-08-21T09:52:50;8.47;;;4.07;;
3769;SDS011;1900;48.890;9.190;2022-08-21T09:55:30;8.53;;;4.40;;
3769;SDS011;1900;48.890;9.190;2022-08-21T09:58:16;6.63;;;3.70;;
3769;SDS011;1900;48.890;9.190;2022-08-21T10:00:45;7.77;;;4.03;;
3769;SDS011;1900;48.890;9.190;2022-08-21T10:03:21;4.90;;;3.30;;
3769;SDS011;1900;48.890;9.190;2022-08-21T10:05:51;8.43;;;4.47;;
3769;SDS011;1900;48.890;9.190;2022-08-21T10:08:19;7.37;;;3.67;;
3769;SDS011;1900;48.890;9.190;2022-08-21T10:10:49;4.60;;;3.07;;
3769;SDS011;1900;48.890;9.190;2022-08-21T10:13:20;7.33;;;4.00;;
3769;SDS011;1900;48.890;9.190;2022-08-21T10:18:36;6.70;;;3.80;;
3769;SDS011;1900;48.890;9.190;2022-08-21T10:21:33;6.83;;;3.70;;
3769;SDS011;1900;48.890;9.190;2022-08-21T10:24:19;6.83;;;3.57;;
3769;SDS011;1900;48.890;9.190;2022-08-21T10:27:06;5.90;;;3.53;;
3769;SDS011;1900;48.890;9.190;2022-08-21T10:29:55;5.77;;;3.70;;
3769;SDS011;1900;48.890;9.190;2022-08-21T10:37:52;6.10;;;3.47;;
3769;SDS011;1900;48.890;9.190;2022-08-21T10:40:37;11.57;;;5.33;;
3769;SDS011;1900;48.890;9.190;2022-08-21T10:46:16;30.43;;;11.47;;
3769;SDS011;1900;48.890;9.190;2022-08-21T10:48:57;16.17;;;6.50;;
3769;SDS011;1900;48.890;9.190;2022-08-21T10:51:40;11.70;;;5.07;;
3769;SDS011;1900;48.890;9.190;2022-08-21T10:56:36;9.43;;;4.13;;
3769;SDS011;1900;48.890;9.190;2022-08-21T11:01:44;4.90;;;3.33;;
3769;SDS011;1900;48.890;9.190;2022-08-21T11:04:24;7.73;;;3.77;;
3769;SDS011;1900;48.890;9.190;2022-08-21T11:07:06;9.43;;;3.70;;
3769;SDS011;1900;48.890;9.190;2022-08-21T11:09:56;6.47;;;3.30;;
3769;SDS011;1900;48.890;9.190;2022-08-21T11:12:27;5.80;;;3.30;;
3769;SDS011;1900;48.890;9.190;2022-08-21T11:18:31;4.47;;;2.90;;
3769;SDS011;1900;48.890;9.190;2022-08-21T11:29:33;10.33;;;3.90;;
3769;SDS011;1900;48.890;9.190;2022-08-21T11:34:59;6.23;;;3.53;;
3769;SDS011;1900;48.890;9.190;2022-08-21T11:46:25;7.60;;;3.80;;
3769;SDS011;1900;48.890;9.190;2022-08-21T11:54:31;5.53;;;3.23;;
3769;SDS011;1900;48.890;9.190;2022-08-21T11:57:00;7.43;;;3.30;;
3769;SDS011;1900;48.890;9.190;2022-08-21T11:59:37;5.73;;;3.60;;
3769;SDS011;1900;48.890;9.190;2022-08-21T12:02:14;5.30;;;3.40;;
3769;SDS011;1900;48.890;9.190;2022-08-21T12:04:49;5.70;;;2.80;;
3769;SDS011;1900;48.890;9.190;2022-08-21T12:07:39;6.03;;;3.00;;
3769;SDS011;1900;48.890;9.190;2022-08-21T12:10:08;5.80;;;3.00;;
3769;SDS011;1900;48.890;9.190;2022-08-21T12:12:38;4.97;;;2.60;;
3769;SDS011;1900;48.890;9.190;2022-08-21T12:18:01;4.27;;;3.20;;
3769;SDS011;1900;48.890;9.190;2022-08-21T12:21:17;8.30;;;3.40;;
3769;SDS011;1900;48.890;9.190;2022-08-21T12:26:23;7.30;;;3.03;;
3769;SDS011;1900;48.890;9.190;2022-08-21T12:29:02;6.00;;;2.93;;
3769;SDS011;1900;48.890;9.190;2022-08-21T12:31:29;6.97;;;2.90;;
3769;SDS011;1900;48.890;9.190;2022-08-21T12:33:56;5.40;;;3.17;;
3769;SDS011;1900;48.890;9.190;2022-08-21T12:36:27;7.90;;;3.40;;
3769;SDS011;1900;48.890;9.190;2022-08-21T12:39:04;4.77;;;3.10;;
3769;SDS011;1900;48.890;9.190;2022-08-21T12:41:52;4.83;;;2.70;;
3769;SDS011;1900;48.890;9.190;2022-08-21T12:45:00;5.17;;;2.73;;
3769;SDS011;1900;48.890;9.190;2022-08-21T12:47:34;5.87;;;3.00;;
3769;SDS011;1900;48.890;9.190;2022-08-21T12:50:11;3.77;;;2.80;;
3769;SDS011;1900;48.890;9.190;2022-08-21T12:52:45;4.80;;;2.60;;
3769;SDS011;1900;48.890;9.190;2022-08-21T12:55:25;4.93;;;2.67;;
3769;SDS011;1900;48.890;9.190;2022-08-21T12:57:56;6.97;;;2.67;;
3769;SDS011;1900;48.890;9.190;2022-08-21T13:00:23;4.27;;;2.87;;
3769;SDS011;1900;48.890;9.190;2022-08-21T13:02:51;7.63;;;2.70;;
3769;SDS011;1900;48.890;9.190;2022-08-21T13:05:35;4.40;;;2.60;;
3769;SDS011;1900;48.890;9.190;2022-08-21T13:08:03;4.77;;;2.90;;
3769;SDS011;1900;48.890;9.190;2022-08-21T13:10:31;3.83;;;2.65;;
3769;SDS011;1900;48.890;9.190;2022-08-21T13:12:59;3.72;;;2.60;;
3769;SDS011;1900;48.890;9.190;2022-08-21T13:15:37;4.37;;;2.97;;
3769;SDS011;1900;48.890;9.190;2022-08-21T13:18:05;3.28;;;2.20;;
3769;SDS011;1900;48.890;9.190;2022-08-21T13:20:35;4.50;;;2.70;;
3769;SDS011;1900;48.890;9.190;2022-08-21T13:23:06;2.97;;;2.40;;
3769;SDS011;1900;48.890;9.190;2022-08-21T13:25:48;5.85;;;2.92;;
3769;SDS011;1900;48.890;9.190;2022-08-21T13:28:14;3.20;;;2.33;;
3769;SDS011;1900;48.890;9.190;2022-08-21T13:30:58;4.63;;;2.45;;
3769;SDS011;1900;48.890;9.190;2022-08-21T13:33:26;4.25;;;2.42;;
3769;SDS011;1900;48.890;9.190;2022-08-21T13:38:25;5.32;;;2.50;;
3769;SDS011;1900;48.890;9.190;2022-08-21T13:40:58;3.92;;;2.78;;
3769;SDS011;1900;48.890;9.190;2022-08-21T13:43:30;3.75;;;2.78;;
3769;SDS011;1900;48.890;9.190;2022-08-21T13:46:00;4.47;;;2.42;;
3769;SDS011;1900;48.890;9.190;2022-08-21T13:48:31;4.05;;;2.88;;
3769;SDS011;1900;48.890;9.190;2022-08-21T13:50:59;8.85;;;3.15;;
3769;SDS011;1900;48.890;9.190;2022-08-21T13:56:00;3.65;;;2.80;;
3769;SDS011;1900;48.890;9.190;2022-08-21T13:58:43;7.13;;;2.40;;
3769;SDS011;1900;48.890;9.190;2022-08-21T14:01:25;3.85;;;2.60;;
3769;SDS011;1900;48.890;9.190;2022-08-21T14:03:55;4.35;;;2.13;;
3769;SDS011;1900;48.890;9.190;2022-08-21T14:06:33;4.47;;;2.55;;
3769;SDS011;1900;48.890;9.190;2022-08-21T14:09:03;7.20;;;2.40;;
3769;SDS011;1900;48.890;9.190;2022-08-21T14:11:36;4.18;;;3.00;;
3769;SDS011;1900;48.890;9.190;2022-08-21T14:14:05;5.30;;;3.00;;
3769;SDS011;1900;48.890;9.190;2022-08-21T14:22:21;3.25;;;2.10;;
3769;SDS011;1900;48.890;9.190;2022-08-21T14:27:34;3.08;;;2.00;;
3769;SDS011;1900;48.890;9.190;2022-08-21T14:30:12;4.68;;;2.28;;
3769;SDS011;1900;48.890;9.190;2022-08-21T14:32:42;2.65;;;2.45;;
3769;SDS011;1900;48.890;9.190;2022-08-21T14:35:09;4.43;;;2.83;;
3769;SDS011;1900;48.890;9.190;2022-08-21T14:37:36;3.38;;;2.65;;
3769;SDS011;1900;48.890;9.190;2022-08-21T14:40:02;8.02;;;2.92;;
3769;SDS011;1900;48.890;9.190;2022-08-21T14:42:29;2.88;;;2.45;;
3769;SDS011;1900;48.890;9.190;2022-08-21T14:44:59;3.53;;;2.72;;
3769;SDS011;1900;48.890;9.190;2022-08-21T14:47:32;5.68;;;2.78;;
3769;SDS011;1900;48.890;9.190;2022-08-21T14:49:58;3.30;;;2.42;;
3769;SDS011;1900;48.890;9.190;2022-08-21T14:52:23;5.15;;;2.70;;
3769;SDS011;1900;48.890;9.190;2022-08-21T14:54:49;5.88;;;2.63;;
3769;SDS011;1900;48.890;9.190;2022-08-21T14:57:15;3.88;;;2.40;;
3769;SDS011;1900;48.890;9.190;2022-08-21T14:59:41;4.20;;;2.72;;
3769;SDS011;1900;48.890;9.190;2022-08-21T15:02:07;5.25;;;2.92;;
3769;SDS011;1900;48.890;9.190;2022-08-21T15:04:34;4.82;;;2.65;;
3769;SDS011;1900;48.890;9.190;2022-08-21T15:07:00;4.90;;;2.60;;
3769;SDS011;1900;48.890;9.190;2022-08-21T15:09:26;4.07;;;2.50;;
3769;SDS011;1900;48.890;9.190;2022-08-21T15:11:52;4.65;;;2.67;;
3769;SDS011;1900;48.890;9.190;2022-08-21T15:14:21;4.50;;;2.95;;
3769;SDS011;1900;48.890;9.190;2022-08-21T15:16:50;5.68;;;2.85;;
3769;SDS011;1900;48.890;9.190;2022-08-21T15:19:16;3.47;;;3.00;;
3769;SDS011;1900;48.890;9.190;2022-08-21T15:21:43;5.07;;;2.75;;
3769;SDS011;1900;48.890;9.190;2022-08-21T15:24:08;4.45;;;2.70;;
3769;SDS011;1900;48.890;9.190;2022-08-21T15:26:35;5.50;;;2.95;;
3769;SDS011;1900;48.890;9.190;2022-08-21T15:29:02;3.95;;;2.78;;
3769;SDS011;1900;48.890;9.190;2022-08-21T15:31:29;4.57;;;2.42;;
3769;SDS011;1900;48.890;9.190;2022-08-21T15:33:55;4.97;;;2.70;;
3769;SDS011;1900;48.890;9.190;2022-08-21T15:36:21;5.13;;;3.10;;
3769;SDS011;1900;48.890;9.190;2022-08-21T15:38:46;3.33;;;2.58;;
3769;SDS011;1900;48.890;9.190;2022-08-21T15:41:12;3.80;;;3.20;;
3769;SDS011;1900;48.890;9.190;2022-08-21T15:43:44;4.20;;;3.45;;
3769;SDS011;1900;48.890;9.190;2022-08-21T15:46:13;7.97;;;2.72;;
3769;SDS011;1900;48.890;9.190;2022-08-21T15:48:40;4.88;;;2.92;;
3769;SDS011;1900;48.890;9.190;2022-08-21T15:51:06;5.82;;;2.38;;
3769;SDS011;1900;48.890;9.190;2022-08-21T15:53:33;4.43;;;2.90;;
3769;SDS011;1900;48.890;9.190;2022-08-21T15:56:03;3.53;;;2.85;;
3769;SDS011;1900;48.890;9.190;2022-08-21T15:58:29;4.68;;;2.97;;
3769;SDS011;1900;48.890;9.190;2022-08-21T16:00:57;2.92;;;2.42;;
3769;SDS011;1900;48.890;9.190;2022-08-21T16:03:24;3.80;;;2.70;;
3769;SDS011;1900;48.890;9.190;2022-08-21T16:05:51;4.55;;;2.80;;
3769;SDS011;1900;48.890;9.190;2022-08-21T16:08:18;4.38;;;2.90;;
3769;SDS011;1900;48.890;9.190;2022-08-21T16:10:45;3.28;;;2.65;;
3769;SDS011;1900;48.890;9.190;2022-08-21T16:13:34;3.75;;;2.78;;
3769;SDS011;1900;48.890;9.190;2022-08-21T16:16:04;3.43;;;2.60;;
3769;SDS011;1900;48.890;9.190;2022-08-21T16:18:31;8.57;;;7.20;;
3769;SDS011;1900;48.890;9.190;2022-08-21T16:20:57;9.07;;;4.83;;
3769;SDS011;1900;48.890;9.190;2022-08-21T16:23:22;5.00;;;4.23;;
3769;SDS011;1900;48.890;9.190;2022-08-21T16:25:48;4.33;;;3.07;;
3769;SDS011;1900;48.890;9.190;2022-08-21T16:28:15;4.90;;;3.30;;
3769;SDS011;1900;48.890;9.190;2022-08-21T16:30:45;5.73;;;3.83;;
3769;SDS011;1900;48.890;9.190;2022-08-21T16:33:24;3.67;;;3.10;;
3769;SDS011;1900;48.890;9.190;2022-08-21T16:35:52;5.00;;;4.00;;
3769;SDS011;1900;48.890;9.190;2022-08-21T16:38:17;8.03;;;3.00;;
3769;SDS011;1900;48.890;9.190;2022-08-21T16:40:43;4.53;;;3.10;;
3769;SDS011;1900;48.890;9.190;2022-08-21T16:43:09;4.60;;;3.20;;
3769;SDS011;1900;48.890;9.190;2022-08-21T16:45:35;6.27;;;3.33;;
3769;SDS011;1900;48.890;9.190;2022-08-21T16:48:02;4.53;;;2.73;;